createdAt,value
2023-04-05T00:00:28.278Z,5.68
2023-04-05T00:05:34.419Z,5.18
2023-04-05T00:10:37.589Z,4.95
2023-04-05T00:15:41.069Z,5.32
2023-04-05T00:20:45.549Z,5.85
2023-04-05T00:25:48.635Z,4.88
2023-04-05T00:30:53.130Z,5.13
2023-04-05T00:35:57.634Z,4.85
2023-04-05T00:41:01.138Z,4.95
2023-04-05T00:46:05.119Z,5.00
2023-04-05T00:51:11.641Z,5.25
2023-04-05T00:56:16.853Z,4.50
2023-04-05T01:01:20.656Z,4.70
2023-04-05T01:06:30.145Z,4.82
2023-04-05T01:11:34.769Z,5.05
2023-04-05T01:16:37.871Z,5.32
2023-04-05T01:22:15.078Z,5.43
2023-04-05T01:27:21.260Z,5.25
2023-04-05T01:32:36.692Z,6.13
2023-04-05T01:37:41.395Z,4.97
2023-04-05T01:42:45.534Z,5.47
2023-04-05T01:47:50.085Z,4.85
2023-04-05T01:52:55.287Z,6.20
2023-04-05T01:57:58.779Z,5.38
2023-04-05T02:03:03.342Z,4.80
2023-04-05T02:08:06.677Z,5.00
2023-04-05T02:13:09.840Z,6.20
2023-04-05T02:18:14.429Z,5.60
2023-04-05T02:23:18.085Z,5.20
2023-04-05T02:28:21.221Z,5.60
2023-04-05T02:33:25.939Z,5.50
2023-04-05T02:38:29.038Z,5.60
2023-04-05T02:43:34.057Z,5.32
2023-04-05T02:48:39.336Z,5.60
2023-04-05T02:53:45.009Z,5.40
2023-04-05T02:58:51.516Z,5.85
2023-04-05T03:04:01.554Z,5.72
2023-04-05T03:09:04.926Z,5.85
2023-04-05T03:14:08.051Z,5.53
2023-04-05T03:19:18.850Z,6.10
2023-04-05T03:24:23.214Z,5.60
2023-04-05T03:29:27.317Z,5.95
2023-04-05T03:34:32.603Z,5.97
2023-04-05T03:39:40.386Z,5.88
2023-04-05T03:44:43.649Z,6.32
2023-04-05T03:49:48.260Z,6.65
2023-04-05T03:54:51.525Z,6.50
2023-04-05T03:59:58.711Z,6.55
2023-04-05T04:05:08.345Z,6.10
2023-04-05T04:10:13.417Z,6.15
2023-04-05T04:15:18.105Z,7.47
2023-04-05T04:20:38.180Z,6.07
2023-04-05T04:25:58.806Z,6.38
2023-04-05T04:31:21.487Z,5.88
2023-04-05T04:37:00.718Z,6.78
2023-04-05T04:42:20.037Z,6.50
2023-04-05T04:47:42.286Z,6.50
2023-04-05T04:52:56.082Z,6.70
2023-04-05T04:57:59.206Z,7.22
2023-04-05T05:03:02.642Z,6.93
2023-04-05T05:08:07.357Z,6.60
2023-04-05T05:13:11.218Z,7.30
2023-04-05T05:18:14.768Z,6.68
2023-04-05T05:23:21.187Z,7.40
2023-04-05T05:28:25.904Z,6.88
2023-04-05T05:33:29.093Z,7.75
2023-04-05T05:38:33.536Z,7.57
2023-04-05T05:43:36.669Z,7.20
2023-04-05T05:48:40.904Z,7.55
2023-04-05T05:53:45.944Z,10.27
2023-04-05T05:58:49.334Z,7.63
2023-04-05T06:03:52.518Z,8.85
2023-04-05T06:08:57.073Z,8.13
2023-04-05T06:14:00.342Z,7.82
2023-04-05T06:19:03.445Z,8.45
2023-04-05T06:24:08.354Z,7.45
2023-04-05T06:29:12.139Z,8.13
2023-04-05T06:34:15.313Z,8.43
2023-04-05T06:39:19.845Z,7.30
2023-04-05T06:44:23.197Z,8.02
2023-04-05T06:49:26.334Z,8.45
2023-04-05T06:54:30.834Z,7.82
2023-04-05T06:59:33.989Z,8.07
2023-04-05T07:04:37.607Z,7.68
2023-04-05T07:09:42.316Z,6.53
2023-04-05T07:14:45.399Z,6.70
2023-04-05T07:19:48.609Z,17.92
2023-04-05T07:24:53.435Z,6.70
2023-04-05T07:29:56.766Z,6.85
2023-04-05T07:34:59.957Z,6.70
2023-04-05T07:40:06.051Z,6.70
2023-04-05T07:45:09.403Z,7.22
2023-04-05T07:50:15.376Z,6.53
2023-04-05T07:55:20.262Z,6.50
2023-04-05T08:00:23.573Z,5.97
2023-04-05T08:05:28.941Z,6.15
2023-04-05T08:10:33.505Z,6.50
2023-04-05T08:15:36.605Z,5.68
2023-04-05T08:20:40.799Z,5.78
2023-04-05T08:25:47.206Z,6.03
2023-04-05T08:30:53.949Z,5.40
2023-04-05T08:35:57.239Z,5.53
2023-04-05T08:41:07.473Z,5.05
2023-04-05T08:46:11.154Z,5.20
2023-04-05T08:51:14.242Z,5.50
2023-04-05T08:56:21.426Z,5.03
2023-04-05T09:01:25.729Z,4.93
2023-04-05T09:06:28.995Z,4.40
2023-04-05T09:11:34.007Z,4.63
2023-04-05T09:16:38.840Z,5.15
2023-04-05T09:22:01.056Z,5.32
2023-04-05T09:27:09.748Z,4.78
2023-04-05T09:32:13.338Z,4.22
2023-04-05T09:37:17.367Z,4.43
2023-04-05T09:42:23.527Z,4.82
2023-04-05T09:47:31.260Z,5.30
2023-04-05T09:52:37.521Z,4.65
2023-04-05T09:57:44.068Z,4.40
2023-04-05T10:02:49.444Z,4.65
2023-04-05T10:07:53.312Z,4.97
2023-04-05T10:12:57.981Z,5.15
2023-04-05T10:18:05.007Z,4.63
2023-04-05T10:23:09.268Z,4.85
2023-04-05T10:28:18.039Z,5.47
2023-04-05T10:33:22.738Z,5.07
2023-04-05T10:38:27.168Z,4.78
2023-04-05T10:43:33.199Z,4.75
2023-04-05T10:48:38.632Z,4.90
2023-04-05T10:53:42.374Z,5.18
2023-04-05T10:58:47.545Z,4.82
2023-04-05T11:03:51.805Z,4.57
2023-04-05T11:08:56.429Z,5.03
2023-04-05T11:14:00.939Z,4.97
2023-04-05T11:19:04.098Z,4.53
2023-04-05T11:24:08.062Z,4.88
2023-04-05T11:29:12.584Z,5.05
2023-04-05T11:34:25.411Z,5.20
2023-04-05T11:39:29.463Z,16.88
2023-04-05T11:44:42.459Z,4.95
2023-04-05T11:49:50.348Z,5.28
2023-04-05T11:54:53.437Z,5.40
2023-04-05T11:59:58.125Z,4.90
2023-04-05T12:05:01.336Z,5.10
2023-04-05T12:10:09.615Z,5.53
2023-04-05T12:15:15.288Z,5.30
2023-04-05T12:20:19.730Z,4.95
2023-04-05T12:25:23.254Z,5.70
2023-04-05T12:30:35.246Z,5.18
2023-04-05T12:35:40.262Z,5.90
2023-04-05T12:40:43.567Z,5.68
2023-04-05T12:45:50.637Z,5.47
2023-04-05T12:50:55.044Z,5.40
2023-04-05T12:55:58.865Z,5.05
2023-04-05T13:01:03.488Z,4.88
2023-04-05T13:06:06.796Z,5.70
2023-04-05T13:11:09.915Z,5.95
2023-04-05T13:16:14.368Z,7.28
2023-04-05T13:21:17.498Z,5.63
2023-04-05T13:26:21.109Z,5.40
2023-04-05T13:31:25.804Z,4.55
2023-04-05T13:36:29.237Z,5.00
2023-04-05T13:41:32.509Z,5.20
2023-04-05T13:46:37.059Z,5.32
2023-04-05T13:51:41.433Z,5.68
2023-04-05T13:56:44.527Z,5.10
2023-04-05T14:01:49.125Z,4.55
2023-04-05T14:06:53.307Z,5.47
2023-04-05T14:11:57.991Z,4.88
2023-04-05T14:17:02.521Z,5.10
2023-04-05T14:22:06.026Z,4.70
2023-04-05T14:27:09.148Z,4.57
2023-04-05T14:32:13.701Z,4.97
2023-04-05T14:37:18.116Z,6.30
2023-04-05T14:42:21.683Z,5.00
2023-04-05T14:47:26.324Z,5.93
2023-04-05T14:52:29.623Z,5.20
2023-04-05T14:57:32.796Z,6.13
2023-04-05T15:02:38.016Z,5.97
2023-04-05T15:07:41.534Z,5.28
2023-04-05T15:12:44.689Z,5.28
2023-04-05T15:17:49.214Z,5.75
2023-04-05T15:22:52.908Z,5.75
2023-04-05T15:27:59.711Z,5.40
2023-04-05T15:33:06.445Z,5.82
2023-04-05T15:38:09.735Z,5.72
2023-04-05T15:43:12.900Z,6.07
2023-04-05T15:48:17.473Z,5.30
2023-04-05T15:53:20.657Z,5.93
2023-04-05T15:58:23.944Z,9.40
2023-04-05T16:03:28.530Z,6.25
2023-04-05T16:08:31.747Z,5.45
2023-04-05T16:13:35.637Z,5.32
2023-04-05T16:18:40.183Z,5.72
2023-04-05T16:23:45.126Z,5.63
2023-04-05T16:28:48.270Z,5.75
2023-04-05T16:33:53.477Z,6.45
2023-04-05T16:38:56.970Z,5.95
2023-04-05T16:44:00.181Z,5.32
2023-04-05T16:49:05.032Z,5.95
2023-04-05T16:54:08.579Z,7.32
2023-04-05T16:59:12.041Z,6.20
2023-04-05T17:04:17.006Z,6.22
2023-04-05T17:09:20.283Z,6.18
2023-04-05T17:14:23.550Z,6.45
2023-04-05T17:19:28.124Z,6.90
2023-04-05T17:24:34.302Z,5.97
2023-04-05T17:29:37.465Z,6.20
2023-04-05T17:34:42.034Z,5.78
2023-04-05T17:39:45.458Z,6.03
2023-04-05T17:44:48.654Z,6.10
2023-04-05T17:49:53.216Z,6.50
2023-04-05T17:54:56.335Z,5.57
2023-04-05T17:59:59.955Z,6.38
2023-04-05T18:05:04.688Z,6.90
2023-04-05T18:10:08.550Z,6.20
2023-04-05T18:15:11.841Z,6.80
2023-04-05T18:20:16.422Z,6.57
2023-04-05T18:25:21.459Z,6.05
2023-04-05T18:30:24.891Z,7.22
2023-04-05T18:35:29.446Z,7.03
2023-04-05T18:40:32.572Z,6.72
2023-04-05T18:45:37.726Z,8.07
2023-04-05T18:50:42.562Z,7.38
2023-04-05T18:55:46.996Z,8.02
2023-04-05T19:00:50.202Z,6.50
2023-04-05T19:05:54.850Z,6.80
2023-04-05T19:10:57.975Z,7.20
2023-04-05T19:16:01.256Z,7.07
2023-04-05T19:21:05.969Z,8.95
2023-04-05T19:26:09.152Z,6.43
2023-04-05T19:31:12.355Z,7.15
2023-04-05T19:36:17.087Z,7.15
2023-04-05T19:41:20.376Z,6.90
2023-04-05T19:46:23.859Z,8.10
2023-04-05T19:51:29.244Z,8.45
2023-04-05T19:56:34.557Z,8.85
2023-04-05T20:01:38.943Z,8.85
2023-04-05T20:06:44.599Z,9.25
2023-04-05T20:11:50.322Z,7.72
2023-04-05T20:16:53.533Z,7.80
2023-04-05T20:21:59.057Z,9.63
2023-04-05T20:27:03.186Z,9.30
2023-04-05T20:32:06.793Z,8.93
2023-04-05T20:37:13.526Z,8.63
2023-04-05T20:42:16.840Z,8.45
2023-04-05T20:47:20.015Z,9.13
2023-04-05T20:52:26.565Z,7.75
2023-04-05T20:57:30.434Z,8.85
2023-04-05T21:02:33.769Z,8.70
2023-04-05T21:07:38.437Z,8.25
2023-04-05T21:12:41.603Z,8.45
2023-04-05T21:17:44.792Z,8.63
2023-04-05T21:22:49.445Z,8.20
2023-04-05T21:27:52.662Z,8.93
2023-04-05T21:32:57.332Z,8.38
2023-04-05T21:38:02.173Z,8.40
2023-04-05T21:43:05.532Z,9.18
2023-04-05T21:48:08.688Z,8.15
2023-04-05T21:53:14.595Z,8.20
2023-04-05T21:58:17.794Z,9.10
2023-04-05T22:03:21.200Z,10.20
2023-04-05T22:08:26.844Z,10.00
2023-04-05T22:13:30.076Z,9.00
2023-04-05T22:18:33.311Z,11.13
2023-04-05T22:23:37.800Z,9.32
2023-04-05T22:28:41.168Z,9.30
2023-04-05T22:33:44.275Z,10.15
2023-04-05T22:38:48.816Z,9.77
2023-04-05T22:43:51.973Z,8.70
2023-04-05T22:48:55.147Z,10.38
2023-04-05T22:53:59.745Z,10.15
2023-04-05T22:59:02.876Z,9.60
2023-04-05T23:04:06.221Z,10.50
2023-04-05T23:09:11.042Z,9.20
2023-04-05T23:14:14.413Z,11.38
2023-04-05T23:19:17.688Z,10.15
2023-04-05T23:24:22.205Z,11.30
2023-04-05T23:29:26.228Z,10.30
2023-04-05T23:34:29.389Z,11.52
2023-04-05T23:39:34.003Z,10.40
2023-04-05T23:44:37.465Z,10.23
2023-04-05T23:49:40.669Z,10.38
2023-04-05T23:54:45.384Z,11.57
2023-04-05T23:59:48.548Z,10.70
